createdAt,value
2022-09-22T00:01:20.313Z,101197.53
2022-09-22T00:03:50.691Z,101190.88
2022-09-22T00:06:20.855Z,101195.34
2022-09-22T00:08:51.402Z,101191.28
2022-09-22T00:11:20.548Z,101191.06
2022-09-22T00:13:52.157Z,101189.50
2022-09-22T00:16:23.591Z,101194.06
2022-09-22T00:18:51.352Z,101196.09
2022-09-22T00:21:20.731Z,101188.41
2022-09-22T00:23:48.969Z,101190.22
2022-09-22T00:26:21.649Z,101193.03
2022-09-22T00:28:51.194Z,101192.34
2022-09-22T00:31:21.612Z,101192.53
2022-09-22T00:33:50.124Z,101188.97
2022-09-22T00:36:19.470Z,101189.50
2022-09-22T00:38:50.443Z,101198.47
2022-09-22T00:41:21.502Z,101191.56
2022-09-22T00:43:51.257Z,101192.59
2022-09-22T00:46:25.110Z,101200.03
2022-09-22T00:48:57.977Z,101202.28
2022-09-22T00:51:26.750Z,101197.94
2022-09-22T00:53:56.207Z,101194.94
2022-09-22T00:56:29.489Z,101198.78
2022-09-22T00:59:02.288Z,101202.47
2022-09-22T01:01:31.396Z,101198.03
2022-09-22T01:03:59.153Z,101196.22
2022-09-22T01:06:29.633Z,101194.94
2022-09-22T01:08:58.329Z,101198.09
2022-09-22T01:11:29.140Z,101195.22
2022-09-22T01:14:06.779Z,101191.69
2022-09-22T01:16:49.715Z,101189.16
2022-09-22T01:19:53.167Z,101201.03
2022-09-22T01:22:55.719Z,101191.94
2022-09-22T01:25:50.489Z,101195.03
2022-09-22T01:28:36.258Z,101189.28
2022-09-22T01:31:10.333Z,101185.63
2022-09-22T01:33:44.408Z,101184.81
2022-09-22T01:36:21.655Z,101176.72
2022-09-22T01:39:00.749Z,101178.44
2022-09-22T01:41:46.679Z,101168.16
2022-09-22T01:44:18.789Z,101169.00
2022-09-22T01:46:55.259Z,101167.22
2022-09-22T01:49:25.057Z,101170.47
2022-09-22T01:51:56.461Z,101168.41
2022-09-22T01:54:27.447Z,101171.84
2022-09-22T01:56:59.547Z,101163.81
2022-09-22T01:59:31.176Z,101169.19
2022-09-22T02:02:04.266Z,101158.44
2022-09-22T02:04:37.008Z,101161.94
2022-09-22T02:07:09.757Z,101160.75
2022-09-22T02:09:40.997Z,101163.53
2022-09-22T02:12:09.161Z,101160.19
2022-09-22T02:14:36.964Z,101161.31
2022-09-22T02:17:06.135Z,101154.31
2022-09-22T02:19:38.521Z,101160.75
2022-09-22T02:22:07.119Z,101159.78
2022-09-22T02:24:36.986Z,101158.25
2022-09-22T02:27:07.749Z,101158.91
2022-09-22T02:29:45.680Z,101160.63
2022-09-22T02:32:17.092Z,101156.91
2022-09-22T02:34:45.727Z,101163.38
2022-09-22T02:37:22.053Z,101157.50
2022-09-22T02:40:01.450Z,101157.38
2022-09-22T02:42:34.128Z,101159.19
2022-09-22T02:45:08.435Z,101156.63
2022-09-22T02:47:44.349Z,101154.22
2022-09-22T02:50:14.784Z,101156.16
2022-09-22T02:52:42.532Z,101156.50
2022-09-22T02:55:11.332Z,101154.03
2022-09-22T02:57:39.089Z,101155.66
2022-09-22T03:00:08.080Z,101162.56
2022-09-22T03:02:35.738Z,101157.19
2022-09-22T03:05:05.670Z,101150.59
2022-09-22T03:07:33.444Z,101151.66
2022-09-22T03:10:01.072Z,101149.19
2022-09-22T03:12:28.721Z,101148.56
2022-09-22T03:14:56.408Z,101144.22
2022-09-22T03:17:24.035Z,101149.50
2022-09-22T03:19:51.945Z,101145.91
2022-09-22T03:22:20.983Z,101145.13
2022-09-22T03:24:48.613Z,101148.53
2022-09-22T03:27:16.301Z,101141.22
2022-09-22T03:29:43.921Z,101138.59
2022-09-22T03:32:11.557Z,101143.47
2022-09-22T03:34:39.262Z,101137.94
2022-09-22T03:37:06.971Z,101137.81
2022-09-22T03:39:36.036Z,101138.91
2022-09-22T03:42:03.751Z,101139.25
2022-09-22T03:44:31.751Z,101135.19
2022-09-22T03:47:00.168Z,101142.41
2022-09-22T03:49:28.379Z,101140.72
2022-09-22T03:51:56.064Z,101134.09
2022-09-22T03:54:23.964Z,101145.56
2022-09-22T03:56:53.107Z,101138.78
2022-09-22T03:59:20.778Z,101142.66
2022-09-22T04:01:48.466Z,101139.56
2022-09-22T04:04:16.208Z,101136.84
2022-09-22T04:06:43.864Z,101135.34
2022-09-22T04:09:11.835Z,101129.88
2022-09-22T04:11:39.466Z,101132.31
2022-09-22T04:14:08.493Z,101123.56
2022-09-22T04:16:36.177Z,101126.41
2022-09-22T04:19:04.951Z,101122.97
2022-09-22T04:21:32.855Z,101126.16
2022-09-22T04:24:00.601Z,101125.06
2022-09-22T04:26:28.384Z,101110.91
2022-09-22T04:28:56.122Z,101117.03
2022-09-22T04:31:25.062Z,101118.97
2022-09-22T04:33:52.756Z,101121.03
2022-09-22T04:36:20.760Z,101123.69
2022-09-22T04:38:48.407Z,101122.97
2022-09-22T04:41:16.120Z,101122.91
2022-09-22T04:43:43.732Z,101121.09
2022-09-22T04:46:11.663Z,101121.09
2022-09-22T04:48:40.713Z,101118.00
2022-09-22T04:51:08.334Z,101125.09
2022-09-22T04:53:36.142Z,101131.16
2022-09-22T04:56:03.835Z,101132.31
2022-09-22T04:58:31.850Z,101132.56
2022-09-22T05:01:03.246Z,101128.50
2022-09-22T05:03:31.009Z,101127.69
2022-09-22T05:06:00.052Z,101130.44
2022-09-22T05:08:27.774Z,101128.34
2022-09-22T05:10:56.708Z,101133.41
2022-09-22T05:13:25.422Z,101141.72
2022-09-22T05:15:53.100Z,101136.50
2022-09-22T05:18:21.102Z,101137.66
2022-09-22T05:20:48.741Z,101138.94
2022-09-22T05:23:17.868Z,101141.63
2022-09-22T05:25:45.529Z,101144.13
2022-09-22T05:28:13.559Z,101147.94
2022-09-22T05:30:41.244Z,101142.19
2022-09-22T05:33:08.953Z,101147.25
2022-09-22T05:35:37.185Z,101149.69
2022-09-22T05:38:05.056Z,101140.25
2022-09-22T05:40:34.232Z,101150.53
2022-09-22T05:43:01.887Z,101149.66
2022-09-22T05:45:29.643Z,101149.50
2022-09-22T05:47:57.328Z,101151.44
2022-09-22T05:50:24.990Z,101149.44
2022-09-22T05:52:52.875Z,101144.16
2022-09-22T05:55:20.541Z,101144.81
2022-09-22T05:57:49.513Z,101149.13
2022-09-22T06:00:17.345Z,101146.47
2022-09-22T06:02:45.615Z,101145.59
2022-09-22T06:05:16.612Z,101145.13
2022-09-22T06:07:45.905Z,101149.56
2022-09-22T06:10:13.532Z,101146.75
2022-09-22T06:12:41.337Z,101153.44
2022-09-22T06:15:11.299Z,101153.19
2022-09-22T06:17:38.956Z,101155.84
2022-09-22T06:20:08.522Z,101163.38
2022-09-22T06:22:36.391Z,101159.47
2022-09-22T06:25:04.311Z,101153.78
2022-09-22T06:27:32.014Z,101155.69
2022-09-22T06:29:59.672Z,101145.59
2022-09-22T06:32:28.704Z,101153.28
2022-09-22T06:34:59.815Z,101142.31
2022-09-22T06:37:27.462Z,101149.91
2022-09-22T06:39:55.084Z,101157.66
2022-09-22T06:42:22.777Z,101148.41
2022-09-22T06:44:50.538Z,101154.34
2022-09-22T06:47:18.349Z,101149.91
2022-09-22T06:49:47.393Z,101153.31
2022-09-22T06:52:15.124Z,101146.00
2022-09-22T06:54:42.776Z,101149.09
2022-09-22T06:57:12.051Z,101149.63
2022-09-22T06:59:40.738Z,101146.50
2022-09-22T07:02:08.719Z,101147.16
2022-09-22T07:04:36.538Z,101139.66
2022-09-22T07:07:05.941Z,101139.81
2022-09-22T07:09:33.678Z,101147.72
2022-09-22T07:12:01.539Z,101147.19
2022-09-22T07:14:29.802Z,101147.53
2022-09-22T07:16:57.457Z,101146.34
2022-09-22T07:19:25.308Z,101143.41
2022-09-22T07:21:53.144Z,101134.91
2022-09-22T07:24:22.783Z,101138.97
2022-09-22T07:26:51.238Z,101138.75
2022-09-22T07:29:18.920Z,101135.38
2022-09-22T07:31:46.631Z,101137.44
2022-09-22T07:34:14.843Z,101143.50
2022-09-22T07:36:42.593Z,101145.41
2022-09-22T07:39:12.134Z,101147.84
2022-09-22T07:41:44.677Z,101139.94
2022-09-22T07:44:31.355Z,101136.50
2022-09-22T07:46:59.677Z,101135.19
2022-09-22T07:49:27.910Z,101136.38
2022-09-22T07:51:57.429Z,101133.94
2022-09-22T07:54:27.570Z,101132.41
2022-09-22T07:56:58.522Z,101138.66
2022-09-22T07:59:27.449Z,101136.31
2022-09-22T08:01:55.730Z,101139.34
2022-09-22T08:04:26.422Z,101136.19
2022-09-22T08:06:56.425Z,101138.22
2022-09-22T08:09:25.283Z,101132.84
2022-09-22T08:11:53.125Z,101135.06
2022-09-22T08:14:23.948Z,101136.28
2022-09-22T08:16:53.141Z,101135.44
2022-09-22T08:19:23.749Z,101132.41
2022-09-22T08:21:54.107Z,101140.38
2022-09-22T08:24:23.094Z,101137.78
2022-09-22T08:26:53.237Z,101137.75
2022-09-22T08:29:24.451Z,101133.16
2022-09-22T08:31:52.257Z,101136.25
2022-09-22T08:34:21.755Z,101139.09
2022-09-22T08:36:49.828Z,101141.84
2022-09-22T08:39:18.784Z,101135.19
2022-09-22T08:41:57.846Z,101127.00
2022-09-22T08:44:30.037Z,101133.22
2022-09-22T08:47:01.488Z,101131.81
2022-09-22T08:49:51.765Z,101126.31
2022-09-22T08:52:28.052Z,101121.03
2022-09-22T08:54:59.611Z,101119.88
2022-09-22T08:57:49.282Z,101122.81
2022-09-22T09:00:20.687Z,101116.88
2022-09-22T09:02:55.552Z,101118.13
2022-09-22T09:06:04.419Z,101123.53
2022-09-22T09:16:14.440Z,101132.22
2022-09-22T09:18:57.275Z,101132.34
2022-09-22T09:21:26.673Z,101130.34
2022-09-22T09:26:52.294Z,101129.69
2022-09-22T09:29:25.211Z,101128.66
2022-09-22T09:31:59.048Z,101129.06
2022-09-22T09:34:29.917Z,101122.38
2022-09-22T09:37:07.752Z,101126.09
2022-09-22T09:39:38.695Z,101117.19
2022-09-22T09:42:17.969Z,101123.84
2022-09-22T09:44:46.620Z,101116.53
2022-09-22T09:47:32.622Z,101114.13
2022-09-22T09:50:00.620Z,101117.84
2022-09-22T09:52:29.525Z,101111.41
2022-09-22T09:54:57.815Z,101108.50
2022-09-22T09:57:28.559Z,101110.06
2022-09-22T10:00:32.714Z,101103.94
2022-09-22T10:03:16.612Z,101103.69
2022-09-22T10:05:44.531Z,101099.31
2022-09-22T10:08:18.643Z,101093.56
2022-09-22T10:10:47.231Z,101091.03
2022-09-22T10:13:36.767Z,101085.13
2022-09-22T10:16:20.811Z,101078.00
2022-09-22T10:18:51.478Z,101080.75
2022-09-22T10:21:21.538Z,101085.13
2022-09-22T10:23:50.445Z,101073.94
2022-09-22T10:26:21.700Z,101070.41
2022-09-22T10:29:16.929Z,101067.19
2022-09-22T10:32:02.553Z,101072.59
2022-09-22T10:34:33.837Z,101073.59
2022-09-22T10:37:03.850Z,101069.03
2022-09-22T10:39:38.037Z,101067.97
2022-09-22T10:42:20.108Z,101059.97
2022-09-22T10:44:49.041Z,101064.13
2022-09-22T10:47:36.646Z,101058.38
2022-09-22T10:50:30.493Z,101056.75
2022-09-22T10:53:08.119Z,101052.94
2022-09-22T10:55:38.486Z,101055.22
2022-09-22T10:58:27.940Z,101053.19
2022-09-22T11:01:14.029Z,101055.66
2022-09-22T11:03:58.837Z,101040.25
2022-09-22T11:07:00.344Z,101044.28
2022-09-22T11:09:53.661Z,101042.53
2022-09-22T11:12:32.296Z,101039.31
2022-09-22T11:15:24.235Z,101035.34
2022-09-22T11:18:17.689Z,101023.91
2022-09-22T11:20:49.317Z,101025.44
2022-09-22T11:23:52.348Z,101023.22
2022-09-22T11:26:28.967Z,101016.88
2022-09-22T11:29:23.104Z,101006.94
2022-09-22T11:32:01.696Z,101012.75
2022-09-22T11:34:47.168Z,101007.69
2022-09-22T11:37:28.243Z,101011.25
2022-09-22T11:40:20.960Z,101011.16
2022-09-22T11:42:55.230Z,101011.25
2022-09-22T11:45:39.339Z,101006.38
2022-09-22T11:48:18.740Z,101002.19
2022-09-22T11:50:59.858Z,101002.53
2022-09-22T11:53:57.526Z,100991.03
2022-09-22T11:56:39.867Z,100987.16
2022-09-22T11:59:21.441Z,100980.00
2022-09-22T12:01:50.833Z,100976.25
2022-09-22T12:04:25.159Z,100974.91
2022-09-22T12:06:56.763Z,100975.47
2022-09-22T12:09:36.765Z,100966.91
2022-09-22T12:12:07.468Z,100962.22
2022-09-22T12:14:38.383Z,100958.19
2022-09-22T12:17:10.403Z,100960.41
2022-09-22T12:19:54.500Z,100955.59
2022-09-22T12:22:28.947Z,100956.44
2022-09-22T12:24:56.634Z,100953.28
2022-09-22T12:27:27.397Z,100952.22
2022-09-22T12:29:59.216Z,100951.50
2022-09-22T12:32:34.173Z,100947.19
2022-09-22T12:35:02.025Z,100946.53
2022-09-22T12:37:32.749Z,100951.53
2022-09-22T12:40:08.372Z,100940.34
2022-09-22T12:42:39.757Z,100941.56
2022-09-22T12:45:18.805Z,100940.34
2022-09-22T12:47:50.920Z,100936.75
2022-09-22T12:50:35.358Z,100934.63
2022-09-22T12:53:06.525Z,100934.69
2022-09-22T12:55:39.366Z,100929.00
2022-09-22T12:58:41.788Z,100920.72
2022-09-22T13:01:33.901Z,100915.94
2022-09-22T13:04:14.525Z,100919.28
2022-09-22T13:06:57.266Z,100914.47
2022-09-22T13:09:28.528Z,100917.59
2022-09-22T13:12:25.330Z,100915.09
2022-09-22T13:15:25.028Z,100913.06
2022-09-22T13:17:54.242Z,100897.38
2022-09-22T13:20:26.625Z,100908.09
2022-09-22T13:22:56.673Z,100899.41
2022-09-22T13:25:27.808Z,100899.84
2022-09-22T13:28:14.719Z,100896.09
2022-09-22T13:30:45.207Z,100889.81
2022-09-22T13:33:22.664Z,100882.78
2022-09-22T13:35:57.088Z,100881.25
2022-09-22T13:38:25.024Z,100879.13
2022-09-22T13:40:53.393Z,100880.84
2022-09-22T13:43:30.077Z,100875.41
2022-09-22T13:45:59.767Z,100870.84
2022-09-22T13:48:32.684Z,100860.38
2022-09-22T13:51:03.864Z,100873.31
2022-09-22T13:53:32.989Z,100871.31
2022-09-22T13:56:01.339Z,100866.22
2022-09-22T13:58:36.180Z,100860.97
2022-09-22T14:01:14.166Z,100853.59
2022-09-22T14:03:44.030Z,100856.22
2022-09-22T14:06:14.792Z,100853.25
2022-09-22T14:08:44.150Z,100846.56
2022-09-22T14:11:16.241Z,100850.59
2022-09-22T14:13:53.197Z,100848.31
2022-09-22T14:16:25.296Z,100851.16
2022-09-22T14:18:59.450Z,100848.00
2022-09-22T14:21:27.299Z,100848.06
2022-09-22T14:23:56.146Z,100840.16
2022-09-22T14:26:33.492Z,100843.09
2022-09-22T14:29:15.213Z,100838.38
2022-09-22T14:31:46.505Z,100829.53
2022-09-22T14:34:20.999Z,100827.16
2022-09-22T14:36:51.935Z,100819.00
2022-09-22T14:39:32.039Z,100825.81
2022-09-22T14:42:08.977Z,100801.78
2022-09-22T14:44:42.789Z,100808.94
2022-09-22T14:47:21.586Z,100809.94
2022-09-22T14:49:51.064Z,100814.09
2022-09-22T14:52:27.048Z,100814.88
2022-09-22T14:54:57.294Z,100809.53
2022-09-22T14:57:28.127Z,100802.13
2022-09-22T15:00:16.067Z,100804.16
2022-09-22T15:02:47.048Z,100796.78
2022-09-22T15:05:29.637Z,100796.78
2022-09-22T15:07:58.629Z,100797.53
2022-09-22T15:10:28.553Z,100797.31
2022-09-22T15:12:57.415Z,100787.16
2022-09-22T15:15:27.107Z,100790.38
2022-09-22T15:18:15.725Z,100795.03
2022-09-22T15:20:47.386Z,100786.72
2022-09-22T15:23:18.375Z,100785.38
2022-09-22T15:25:47.030Z,100787.78
2022-09-22T15:28:16.798Z,100783.44
2022-09-22T15:30:47.418Z,100785.88
2022-09-22T15:33:16.230Z,100782.16
2022-09-22T15:35:47.943Z,100781.31
2022-09-22T15:38:19.335Z,100783.66
2022-09-22T15:40:48.044Z,100781.72
2022-09-22T15:43:19.698Z,100777.91
2022-09-22T15:45:49.498Z,100774.19
2022-09-22T15:48:24.470Z,100780.59
2022-09-22T15:50:53.849Z,100775.34
2022-09-22T15:53:23.000Z,100768.31
2022-09-22T15:55:51.369Z,100764.59
2022-09-22T15:58:22.790Z,100762.41
2022-09-22T16:00:51.705Z,100768.00
2022-09-22T16:03:23.889Z,100768.28
2022-09-22T16:05:57.050Z,100760.81
2022-09-22T16:08:28.781Z,100762.97
2022-09-22T16:10:57.229Z,100757.63
2022-09-22T16:13:25.039Z,100758.59
2022-09-22T16:15:54.262Z,100765.66
2022-09-22T16:18:21.961Z,100753.59
2022-09-22T16:20:51.701Z,100752.31
2022-09-22T16:23:20.777Z,100753.94
2022-09-22T16:25:53.814Z,100751.88
2022-09-22T16:28:21.479Z,100755.97
2022-09-22T16:30:49.141Z,100758.75
2022-09-22T16:33:16.822Z,100757.66
2022-09-22T16:35:44.606Z,100751.47
2022-09-22T16:38:12.546Z,100756.97
2022-09-22T16:40:42.573Z,100763.25
2022-09-22T16:43:10.883Z,100756.53
2022-09-22T16:45:56.117Z,100757.06
2022-09-22T16:48:23.861Z,100759.97
2022-09-22T16:50:54.889Z,100754.75
2022-09-22T16:53:24.166Z,100750.56
2022-09-22T16:55:53.197Z,100761.72
2022-09-22T16:58:20.926Z,100758.69
2022-09-22T17:00:48.670Z,100760.53
2022-09-22T17:03:18.795Z,100760.56
2022-09-22T17:05:46.725Z,100760.56
2022-09-22T17:08:14.397Z,100752.06
2022-09-22T17:10:42.069Z,100756.78
2022-09-22T17:13:11.047Z,100758.28
2022-09-22T17:15:38.761Z,100758.09
2022-09-22T17:18:06.446Z,100760.09
2022-09-22T17:20:34.116Z,100759.75
2022-09-22T17:23:01.929Z,100751.94
2022-09-22T17:25:29.692Z,100749.06
2022-09-22T17:27:57.966Z,100760.81
2022-09-22T17:30:26.982Z,100752.88
2022-09-22T17:32:54.981Z,100758.19
2022-09-22T17:35:22.630Z,100762.84
2022-09-22T17:37:52.145Z,100757.44
2022-09-22T17:40:19.938Z,100759.41
2022-09-22T17:42:48.177Z,100762.88
2022-09-22T17:45:16.036Z,100758.63
2022-09-22T17:48:02.433Z,100752.16
2022-09-22T17:50:48.186Z,100754.25
2022-09-22T17:53:33.076Z,100760.44
2022-09-22T17:56:05.115Z,100756.22
2022-09-22T17:58:32.830Z,100752.28
2022-09-22T18:01:00.597Z,100756.78
2022-09-22T18:03:29.667Z,100755.28
2022-09-22T18:05:58.299Z,100754.69
2022-09-22T18:08:26.193Z,100753.03
2022-09-22T18:10:54.384Z,100760.06
2022-09-22T18:13:22.023Z,100758.28
2022-09-22T18:15:50.891Z,100759.44
2022-09-22T18:18:18.569Z,100749.97
2022-09-22T18:20:48.345Z,100753.88
2022-09-22T18:23:16.677Z,100755.06
2022-09-22T18:25:44.347Z,100756.53
2022-09-22T18:28:12.129Z,100755.19
2022-09-22T18:30:40.717Z,100763.41
2022-09-22T18:33:08.339Z,100766.81
2022-09-22T18:35:36.114Z,100759.22
2022-09-22T18:38:05.261Z,100762.25
2022-09-22T18:40:33.153Z,100760.84
2022-09-22T18:43:00.887Z,100770.47
2022-09-22T18:45:28.771Z,100775.69
2022-09-22T18:47:59.053Z,100770.78
2022-09-22T18:50:28.061Z,100767.84
2022-09-22T18:52:56.776Z,100772.69
2022-09-22T18:55:26.233Z,100773.78
2022-09-22T18:57:54.087Z,100774.63
2022-09-22T19:00:22.185Z,100785.56
2022-09-22T19:02:50.350Z,100789.94
2022-09-22T19:05:18.429Z,100787.63
2022-09-22T19:07:47.712Z,100785.75
2022-09-22T19:10:20.465Z,100790.31
2022-09-22T19:12:50.124Z,100798.75
2022-09-22T19:15:19.339Z,100786.56
2022-09-22T19:17:49.602Z,100792.09
2022-09-22T19:20:20.922Z,100791.16
2022-09-22T19:22:49.333Z,100789.72
2022-09-22T19:25:17.928Z,100786.00
2022-09-22T19:27:46.186Z,100792.00
2022-09-22T19:30:16.935Z,100793.38
2022-09-22T19:32:47.189Z,100792.41
2022-09-22T19:35:15.053Z,100789.03
2022-09-22T19:37:42.718Z,100790.88
2022-09-22T19:40:13.042Z,100782.88
2022-09-22T19:42:40.935Z,100786.34
2022-09-22T19:45:09.419Z,100781.84
2022-09-22T19:47:39.799Z,100788.66
2022-09-22T19:50:08.898Z,100789.53
2022-09-22T19:52:37.736Z,100783.81
2022-09-22T19:55:06.055Z,100787.72
2022-09-22T19:57:37.331Z,100788.50
2022-09-22T20:00:05.903Z,100789.44
2022-09-22T20:02:34.139Z,100780.47
2022-09-22T20:05:03.171Z,100780.75
2022-09-22T20:07:31.786Z,100775.28
2022-09-22T20:10:02.313Z,100779.91
2022-09-22T20:12:30.157Z,100784.09
2022-09-22T20:14:57.852Z,100787.38
2022-09-22T20:17:25.532Z,100781.22
2022-09-22T20:19:54.002Z,100775.25
2022-09-22T20:22:25.350Z,100782.44
2022-09-22T20:24:57.719Z,100776.94
2022-09-22T20:27:27.075Z,100778.66
2022-09-22T20:29:57.449Z,100778.03
2022-09-22T20:32:26.584Z,100774.91
2022-09-22T20:34:55.679Z,100779.50
2022-09-22T20:37:25.467Z,100775.88
2022-09-22T20:39:53.377Z,100771.84
2022-09-22T20:42:21.308Z,100764.94
2022-09-22T20:44:49.438Z,100762.88
2022-09-22T20:47:19.270Z,100761.53
2022-09-22T20:49:51.620Z,100767.34
2022-09-22T20:52:20.835Z,100761.00
2022-09-22T20:54:59.168Z,100760.41
2022-09-22T20:57:29.126Z,100756.53
2022-09-22T20:59:56.834Z,100749.47
2022-09-22T21:02:24.836Z,100751.56
2022-09-22T21:04:53.105Z,100748.16
2022-09-22T21:07:20.789Z,100749.69
2022-09-22T21:10:07.726Z,100747.03
2022-09-22T21:12:35.941Z,100751.63
2022-09-22T21:15:03.717Z,100748.38
2022-09-22T21:17:32.822Z,100746.91
2022-09-22T21:20:00.563Z,100739.97
2022-09-22T21:22:28.433Z,100737.66
2022-09-22T21:24:57.626Z,100741.41
2022-09-22T21:27:25.677Z,100737.28
2022-09-22T21:29:53.464Z,100742.09
2022-09-22T21:32:21.148Z,100731.91
2022-09-22T21:34:48.879Z,100735.41
2022-09-22T21:37:16.587Z,100733.22
2022-09-22T21:39:44.264Z,100730.34
2022-09-22T21:44:39.113Z,100734.31
2022-09-22T21:47:06.818Z,100727.03
2022-09-22T21:49:34.652Z,100736.44
2022-09-22T21:52:02.636Z,100730.94
2022-09-22T21:54:31.131Z,100731.81
2022-09-22T21:56:58.805Z,100727.16
2022-09-22T21:59:26.623Z,100727.28
2022-09-22T22:01:55.652Z,100724.50
2022-09-22T22:04:23.332Z,100720.16
2022-09-22T22:06:52.045Z,100722.19
2022-09-22T22:09:21.209Z,100720.38
2022-09-22T22:11:54.677Z,100716.03
2022-09-22T22:14:24.109Z,100715.25
2022-09-22T22:16:53.480Z,100711.56
2022-09-22T22:19:25.812Z,100711.16
2022-09-22T22:21:54.575Z,100709.78
2022-09-22T22:24:35.689Z,100711.50
2022-09-22T22:27:06.769Z,100710.34
2022-09-22T22:29:36.388Z,100713.16
2022-09-22T22:32:05.393Z,100716.13
2022-09-22T22:37:00.411Z,100720.63
2022-09-22T22:39:29.817Z,100719.56
2022-09-22T22:41:57.441Z,100715.94
2022-09-22T22:44:25.139Z,100721.59
2022-09-22T22:46:52.793Z,100717.97
2022-09-22T22:49:21.175Z,100710.19
2022-09-22T22:51:49.941Z,100720.84
2022-09-22T22:54:18.950Z,100709.13
2022-09-22T22:56:50.323Z,100709.88
2022-09-22T22:59:19.615Z,100710.00
2022-09-22T23:01:47.329Z,100711.28
2022-09-22T23:04:16.535Z,100711.19
2022-09-22T23:06:44.816Z,100716.72
2022-09-22T23:09:15.373Z,100704.94
2022-09-22T23:11:45.809Z,100715.13
2022-09-22T23:14:15.632Z,100703.66
2022-09-22T23:16:45.121Z,100706.72
2022-09-22T23:19:15.249Z,100703.09
2022-09-22T23:21:43.477Z,100705.03
2022-09-22T23:24:16.266Z,100694.38
2022-09-22T23:26:46.146Z,100696.41
2022-09-22T23:29:14.573Z,100699.72
2022-09-22T23:31:42.934Z,100695.25
2022-09-22T23:34:10.782Z,100685.16
2022-09-22T23:36:41.786Z,100689.94
2022-09-22T23:39:12.370Z,100688.25
2022-09-22T23:41:40.159Z,100686.44
2022-09-22T23:44:12.243Z,100690.28
2022-09-22T23:46:39.963Z,100689.13
2022-09-22T23:49:07.834Z,100690.06
2022-09-22T23:51:35.472Z,100684.84
2022-09-22T23:54:03.131Z,100684.22
2022-09-22T23:56:30.788Z,100691.44
2022-09-22T23:58:58.384Z,100680.06
